createdAt,value
2022-10-07T00:00:58.349Z,97136.50
2022-10-07T00:03:27.040Z,97138.44
2022-10-07T00:06:12.153Z,97135.22
2022-10-07T00:08:41.154Z,97134.78
2022-10-07T00:11:13.657Z,97127.38
2022-10-07T00:13:41.887Z,97125.63
2022-10-07T00:16:14.538Z,97130.41
2022-10-07T00:18:42.203Z,97124.50
2022-10-07T00:21:11.897Z,97113.78
2022-10-07T00:23:41.653Z,97113.09
2022-10-07T00:26:11.065Z,97115.16
2022-10-07T00:28:38.128Z,97115.84
2022-10-07T00:31:08.263Z,97111.78
2022-10-07T00:33:38.523Z,97115.28
2022-10-07T00:36:17.701Z,97111.91
2022-10-07T00:38:45.284Z,97112.78
2022-10-07T00:41:18.639Z,97098.31
2022-10-07T00:43:46.237Z,97104.50
2022-10-07T00:46:29.234Z,97093.66
2022-10-07T00:49:00.390Z,97090.47
2022-10-07T00:51:28.238Z,97091.47
2022-10-07T00:53:56.327Z,97087.28
2022-10-07T00:56:26.963Z,97089.31
2022-10-07T00:58:54.253Z,97088.69
2022-10-07T01:04:04.041Z,97083.66
2022-10-07T01:06:31.221Z,97081.13
2022-10-07T01:08:58.377Z,97068.97
2022-10-07T01:11:39.828Z,97086.28
2022-10-07T01:14:16.092Z,97077.00
2022-10-07T01:17:18.306Z,97071.03
2022-10-07T01:20:03.920Z,97069.75
2022-10-07T01:22:41.367Z,97069.50
2022-10-07T01:25:32.147Z,97065.75
2022-10-07T01:28:14.097Z,97060.75
2022-10-07T01:30:46.697Z,97055.28
2022-10-07T01:33:18.945Z,97054.59
2022-10-07T01:35:50.167Z,97038.94
2022-10-07T01:38:22.351Z,97035.25
2022-10-07T01:40:57.261Z,97039.13
2022-10-07T01:43:25.170Z,97030.59
2022-10-07T01:45:54.620Z,97021.88
2022-10-07T01:48:21.650Z,97028.72
2022-10-07T01:50:50.521Z,97028.13
2022-10-07T01:53:53.124Z,97024.34
2022-10-07T01:56:44.772Z,97013.38
2022-10-07T01:59:39.901Z,97014.09
2022-10-07T02:02:28.123Z,97017.72
2022-10-07T02:05:24.067Z,97019.56
2022-10-07T02:08:01.054Z,97014.00
2022-10-07T02:10:44.935Z,97007.00
2022-10-07T02:13:36.203Z,97005.91
2022-10-07T02:16:12.574Z,97005.47
2022-10-07T02:18:43.807Z,96998.84
2022-10-07T02:21:11.446Z,97003.41
2022-10-07T02:23:42.985Z,96995.94
2022-10-07T02:26:13.251Z,96991.75
2022-10-07T02:28:43.728Z,96982.69
2022-10-07T02:31:17.694Z,96984.03
2022-10-07T02:33:47.139Z,96973.34
2022-10-07T02:36:22.214Z,96968.22
2022-10-07T02:38:49.782Z,96977.00
2022-10-07T02:41:41.969Z,96962.22
2022-10-07T02:44:35.039Z,96971.44
2022-10-07T02:47:16.122Z,96970.41
2022-10-07T02:49:47.936Z,96956.50
2022-10-07T02:52:18.229Z,96963.34
2022-10-07T02:54:54.245Z,96963.31
2022-10-07T02:57:22.875Z,96967.91
2022-10-07T02:59:51.775Z,96962.41
2022-10-07T03:02:34.550Z,96967.69
2022-10-07T03:05:01.840Z,96959.50
2022-10-07T03:07:29.212Z,96955.19
2022-10-07T03:09:56.871Z,96962.88
2022-10-07T03:12:24.051Z,96961.97
2022-10-07T03:14:51.184Z,96960.41
2022-10-07T03:17:20.421Z,96946.25
2022-10-07T03:19:49.464Z,96951.94
2022-10-07T03:22:16.600Z,96951.94
2022-10-07T03:24:44.330Z,96933.84
2022-10-07T03:27:11.709Z,96947.88
2022-10-07T03:29:39.892Z,96948.34
2022-10-07T03:32:08.152Z,96946.28
2022-10-07T03:34:35.222Z,96941.28
2022-10-07T03:37:02.389Z,96943.56
2022-10-07T03:39:29.909Z,96946.50
2022-10-07T03:41:57.368Z,96943.13
2022-10-07T03:44:24.637Z,96937.28
2022-10-07T03:46:53.153Z,96946.63
2022-10-07T03:49:23.949Z,96938.19
2022-10-07T03:51:51.087Z,96928.09
2022-10-07T03:54:19.266Z,96930.38
2022-10-07T03:56:46.388Z,96921.72
2022-10-07T03:59:14.915Z,96925.34
2022-10-07T04:01:42.419Z,96925.81
2022-10-07T04:04:09.661Z,96929.91
2022-10-07T04:06:38.848Z,96924.09
2022-10-07T04:09:13.691Z,96921.72
2022-10-07T04:11:41.699Z,96909.75
2022-10-07T04:14:09.549Z,96911.00
2022-10-07T04:16:38.665Z,96916.69
2022-10-07T04:19:08.374Z,96913.84
2022-10-07T04:21:35.537Z,96916.25
2022-10-07T04:24:02.652Z,96909.66
2022-10-07T04:26:30.091Z,96903.75
2022-10-07T04:28:57.156Z,96905.09
2022-10-07T04:31:24.563Z,96894.63
2022-10-07T04:33:57.951Z,96886.44
2022-10-07T04:36:30.501Z,96896.00
2022-10-07T04:39:15.454Z,96892.13
2022-10-07T04:41:51.123Z,96895.78
2022-10-07T04:44:22.270Z,96889.84
2022-10-07T04:47:02.147Z,96885.75
2022-10-07T04:49:30.902Z,96891.13
2022-10-07T04:52:00.089Z,96877.78
2022-10-07T04:54:31.986Z,96883.16
2022-10-07T04:56:59.504Z,96881.44
2022-10-07T04:59:30.021Z,96880.88
2022-10-07T05:01:58.368Z,96875.06
2022-10-07T05:04:26.679Z,96875.03
2022-10-07T05:06:54.720Z,96885.19
2022-10-07T05:09:22.177Z,96885.06
2022-10-07T05:11:52.798Z,96875.50
2022-10-07T05:14:21.475Z,96872.63
2022-10-07T05:16:51.038Z,96870.50
2022-10-07T05:19:20.319Z,96868.47
2022-10-07T05:21:48.302Z,96872.09
2022-10-07T05:24:15.484Z,96874.84
2022-10-07T05:26:43.179Z,96866.97
2022-10-07T05:29:10.376Z,96871.75
2022-10-07T05:31:49.868Z,96869.34
2022-10-07T05:34:20.244Z,96868.94
2022-10-07T05:36:47.738Z,96868.22
2022-10-07T05:39:14.881Z,96866.75
2022-10-07T05:42:17.789Z,96853.69
2022-10-07T05:44:52.682Z,96860.41
2022-10-07T05:47:20.796Z,96869.16
2022-10-07T05:49:49.219Z,96870.47
2022-10-07T05:52:16.632Z,96867.75
2022-10-07T05:54:46.670Z,96866.19
2022-10-07T05:57:15.316Z,96853.66
2022-10-07T05:59:44.027Z,96852.44
2022-10-07T06:02:16.513Z,96860.94
2022-10-07T06:04:51.694Z,96855.72
2022-10-07T06:07:21.434Z,96855.59
2022-10-07T06:10:11.349Z,96858.03
2022-10-07T06:13:18.173Z,96852.31
2022-10-07T06:15:45.372Z,96849.47
2022-10-07T06:18:12.485Z,96841.19
2022-10-07T06:20:39.632Z,96851.28
2022-10-07T06:23:07.295Z,96847.09
2022-10-07T06:25:34.502Z,96849.56
2022-10-07T06:28:01.765Z,96845.13
2022-10-07T06:30:30.864Z,96849.75
2022-10-07T06:33:00.688Z,96843.84
2022-10-07T06:35:27.908Z,96849.63
2022-10-07T06:37:55.999Z,96855.88
2022-10-07T06:40:23.143Z,96854.03
2022-10-07T06:42:50.222Z,96852.06
2022-10-07T06:45:35.579Z,96861.72
2022-10-07T06:48:03.012Z,96865.97
2022-10-07T06:50:31.219Z,96866.19
2022-10-07T06:52:58.940Z,96870.94
2022-10-07T06:55:27.960Z,96862.00
2022-10-07T06:57:56.264Z,96863.16
2022-10-07T07:00:24.119Z,96866.78
2022-10-07T07:02:51.410Z,96856.81
2022-10-07T07:05:19.161Z,96860.28
2022-10-07T07:07:47.735Z,96861.69
2022-10-07T07:10:15.076Z,96865.91
2022-10-07T07:12:49.304Z,96853.38
2022-10-07T07:15:17.516Z,96859.94
2022-10-07T07:17:44.872Z,96867.88
2022-10-07T07:20:14.149Z,96863.28
2022-10-07T07:22:41.981Z,96854.91
2022-10-07T07:25:10.091Z,96851.00
2022-10-07T07:27:38.285Z,96841.63
2022-10-07T07:30:07.073Z,96847.81
2022-10-07T07:32:34.253Z,96843.66
2022-10-07T07:35:04.342Z,96856.38
2022-10-07T07:37:31.875Z,96855.66
2022-10-07T07:39:59.588Z,96849.41
2022-10-07T07:42:28.044Z,96850.34
2022-10-07T07:44:55.270Z,96851.22
2022-10-07T07:47:23.162Z,96849.19
2022-10-07T07:49:50.961Z,96851.84
2022-10-07T07:52:25.580Z,96839.03
2022-10-07T07:54:58.192Z,96842.44
2022-10-07T07:57:27.249Z,96842.16
2022-10-07T07:59:55.861Z,96848.16
2022-10-07T08:02:23.473Z,96851.34
2022-10-07T08:04:51.659Z,96862.47
2022-10-07T08:07:18.904Z,96847.72
2022-10-07T08:09:47.816Z,96840.81
2022-10-07T08:12:14.935Z,96845.34
2022-10-07T08:14:43.210Z,96841.94
2022-10-07T08:17:10.634Z,96847.25
2022-10-07T08:19:38.547Z,96842.47
2022-10-07T08:22:07.104Z,96837.22
2022-10-07T08:24:35.090Z,96829.53
2022-10-07T08:27:02.275Z,96826.00
2022-10-07T08:29:30.223Z,96827.97
2022-10-07T08:31:57.608Z,96825.16
2022-10-07T08:34:24.688Z,96831.50
2022-10-07T08:36:52.204Z,96828.56
2022-10-07T08:39:19.260Z,96823.66
2022-10-07T08:42:04.092Z,96830.22
2022-10-07T08:44:35.859Z,96822.31
2022-10-07T08:47:08.888Z,96824.91
2022-10-07T08:49:47.055Z,96828.97
2022-10-07T08:52:28.932Z,96817.97
2022-10-07T08:54:56.130Z,96818.53
2022-10-07T08:57:47.782Z,96816.97
2022-10-07T09:00:19.785Z,96813.16
2022-10-07T09:02:46.882Z,96816.19
2022-10-07T09:05:20.273Z,96813.84
2022-10-07T09:07:54.443Z,96805.41
2022-10-07T09:10:41.305Z,96807.84
2022-10-07T09:13:17.669Z,96798.41
2022-10-07T09:16:16.820Z,96807.50
2022-10-07T09:18:56.750Z,96803.72
2022-10-07T09:21:29.003Z,96798.91
2022-10-07T09:24:02.154Z,96790.78
2022-10-07T09:26:31.150Z,96788.78
2022-10-07T09:28:58.895Z,96792.91
2022-10-07T09:31:26.141Z,96783.00
2022-10-07T09:33:54.247Z,96788.97
2022-10-07T09:36:21.377Z,96784.88
2022-10-07T09:38:50.235Z,96776.84
2022-10-07T09:41:31.010Z,96779.84
2022-10-07T09:44:10.759Z,96775.91
2022-10-07T09:46:46.914Z,96768.53
2022-10-07T09:49:29.266Z,96770.09
2022-10-07T09:52:24.744Z,96762.63
2022-10-07T09:54:54.972Z,96771.03
2022-10-07T09:57:30.947Z,96774.91
2022-10-07T10:00:13.465Z,96772.19
2022-10-07T10:02:46.425Z,96782.50
2022-10-07T10:05:21.281Z,96777.41
2022-10-07T10:07:52.807Z,96779.34
2022-10-07T10:10:27.043Z,96767.56
2022-10-07T10:12:57.239Z,96760.72
2022-10-07T10:15:44.392Z,96762.00
2022-10-07T10:18:30.529Z,96753.31
2022-10-07T10:21:44.072Z,96754.78
2022-10-07T10:24:15.009Z,96757.22
2022-10-07T10:27:03.725Z,96753.34
2022-10-07T10:29:54.513Z,96753.34
2022-10-07T10:32:49.413Z,96743.97
2022-10-07T10:35:28.065Z,96732.53
2022-10-07T10:38:16.980Z,96736.06
2022-10-07T10:40:51.662Z,96720.72
2022-10-07T10:43:24.898Z,96729.84
2022-10-07T10:46:17.875Z,96718.78
2022-10-07T10:48:55.463Z,96714.06
2022-10-07T10:51:42.317Z,96707.00
2022-10-07T10:54:28.378Z,96714.97
2022-10-07T10:57:04.922Z,96705.94
2022-10-07T10:59:49.235Z,96703.13
2022-10-07T11:02:31.651Z,96698.41
2022-10-07T11:05:06.266Z,96692.06
2022-10-07T11:07:37.409Z,96688.94
2022-10-07T11:10:18.226Z,96689.69
2022-10-07T11:12:54.535Z,96684.53
2022-10-07T11:15:27.363Z,96677.06
2022-10-07T11:17:59.499Z,96671.56
2022-10-07T11:20:35.547Z,96677.84
2022-10-07T11:23:13.647Z,96675.47
2022-10-07T11:26:10.152Z,96666.84
2022-10-07T11:28:41.929Z,96662.09
2022-10-07T11:31:13.686Z,96657.38
2022-10-07T11:33:55.411Z,96654.28
2022-10-07T11:36:31.238Z,96655.88
2022-10-07T11:38:58.351Z,96652.72
2022-10-07T11:41:34.052Z,96648.75
2022-10-07T11:44:08.391Z,96645.16
2022-10-07T11:46:47.009Z,96646.38
2022-10-07T11:49:21.419Z,96633.69
2022-10-07T11:51:53.907Z,96637.56
2022-10-07T11:54:24.916Z,96627.72
2022-10-07T11:56:54.479Z,96632.09
2022-10-07T11:59:40.509Z,96619.78
2022-10-07T12:02:29.762Z,96612.59
2022-10-07T12:05:00.507Z,96601.91
2022-10-07T12:07:36.794Z,96600.06
2022-10-07T12:10:03.935Z,96598.38
2022-10-07T12:12:44.992Z,96590.66
2022-10-07T12:15:36.594Z,96584.47
2022-10-07T12:18:17.257Z,96573.97
2022-10-07T12:20:50.694Z,96570.53
2022-10-07T12:23:21.942Z,96564.91
2022-10-07T12:26:18.179Z,96553.41
2022-10-07T12:28:47.378Z,96557.97
2022-10-07T12:31:23.434Z,96546.34
2022-10-07T12:33:53.361Z,96549.41
2022-10-07T12:36:26.211Z,96545.97
2022-10-07T12:39:00.022Z,96544.94
2022-10-07T12:41:39.668Z,96530.69
2022-10-07T12:44:21.043Z,96542.59
2022-10-07T12:47:00.806Z,96536.34
2022-10-07T12:49:30.822Z,96526.91
2022-10-07T12:52:03.643Z,96528.00
2022-10-07T12:54:41.627Z,96509.41
2022-10-07T12:57:13.622Z,96512.78
2022-10-07T13:00:01.815Z,96513.44
2022-10-07T13:02:44.186Z,96496.97
2022-10-07T13:05:36.117Z,96499.34
2022-10-07T13:09:02.597Z,96496.81
2022-10-07T13:11:55.907Z,96494.41
2022-10-07T13:14:55.406Z,96490.13
2022-10-07T13:17:40.821Z,96489.09
2022-10-07T13:20:13.817Z,96484.38
2022-10-07T13:22:48.912Z,96467.41
2022-10-07T13:25:21.905Z,96465.25
2022-10-07T13:27:54.576Z,96468.88
2022-10-07T13:30:42.104Z,96461.19
2022-10-07T13:33:30.338Z,96459.97
2022-10-07T13:36:15.722Z,96448.53
2022-10-07T13:38:44.053Z,96444.53
2022-10-07T13:41:14.033Z,96446.97
2022-10-07T13:43:43.679Z,96452.69
2022-10-07T13:46:12.567Z,96456.97
2022-10-07T13:48:45.681Z,96444.25
2022-10-07T13:51:42.754Z,96441.88
2022-10-07T13:54:24.004Z,96440.38
2022-10-07T13:56:51.654Z,96430.06
2022-10-07T13:59:20.306Z,96427.25
2022-10-07T14:01:53.621Z,96418.47
2022-10-07T14:04:20.741Z,96421.22
2022-10-07T14:07:09.353Z,96415.19
2022-10-07T14:10:09.663Z,96411.91
2022-10-07T14:12:41.887Z,96404.78
2022-10-07T14:15:19.521Z,96395.59
2022-10-07T14:17:51.842Z,96395.00
2022-10-07T14:20:29.125Z,96391.00
2022-10-07T14:22:58.751Z,96384.41
2022-10-07T14:25:28.744Z,96383.19
2022-10-07T14:27:58.813Z,96381.50
2022-10-07T14:30:28.884Z,96378.94
2022-10-07T14:33:25.034Z,96374.44
2022-10-07T14:36:18.380Z,96374.59
2022-10-07T14:38:49.651Z,96367.72
2022-10-07T14:41:21.914Z,96368.22
2022-10-07T14:43:51.767Z,96366.75
2022-10-07T14:46:20.391Z,96359.81
2022-10-07T14:48:48.763Z,96368.78
2022-10-07T14:51:20.408Z,96367.03
2022-10-07T14:53:54.427Z,96365.66
2022-10-07T14:56:27.723Z,96357.84
2022-10-07T14:58:55.860Z,96346.13
2022-10-07T15:01:24.552Z,96345.00
2022-10-07T15:03:51.649Z,96344.09
2022-10-07T15:06:20.232Z,96343.75
2022-10-07T15:08:48.380Z,96336.22
2022-10-07T15:11:18.570Z,96341.19
2022-10-07T15:13:49.989Z,96335.41
2022-10-07T15:16:20.568Z,96332.72
2022-10-07T15:18:52.354Z,96334.88
2022-10-07T15:21:21.394Z,96343.72
2022-10-07T15:23:54.701Z,96338.63
2022-10-07T15:26:24.418Z,96337.94
2022-10-07T15:28:56.294Z,96338.19
2022-10-07T15:31:29.002Z,96333.66
2022-10-07T15:33:57.506Z,96332.03
2022-10-07T15:36:29.297Z,96337.84
2022-10-07T15:39:02.036Z,96332.25
2022-10-07T15:41:38.314Z,96338.03
2022-10-07T15:44:11.683Z,96328.75
2022-10-07T15:46:38.877Z,96333.50
2022-10-07T15:49:07.329Z,96339.00
2022-10-07T15:51:36.192Z,96335.88
2022-10-07T15:54:04.969Z,96336.28
2022-10-07T15:56:32.809Z,96327.81
2022-10-07T15:59:01.308Z,96332.63
2022-10-07T16:01:31.697Z,96326.78
2022-10-07T16:04:00.864Z,96326.06
2022-10-07T16:06:33.600Z,96323.94
2022-10-07T16:09:01.889Z,96320.91
2022-10-07T16:11:31.141Z,96329.53
2022-10-07T16:13:59.658Z,96327.25
2022-10-07T16:16:27.910Z,96316.19
2022-10-07T16:18:57.805Z,96324.53
2022-10-07T16:21:30.054Z,96310.03
2022-10-07T16:24:02.140Z,96303.69
2022-10-07T16:26:30.283Z,96316.50
2022-10-07T16:29:18.225Z,96310.16
2022-10-07T16:31:47.057Z,96318.63
2022-10-07T16:34:16.149Z,96317.63
2022-10-07T16:36:46.073Z,96313.41
2022-10-07T16:39:14.001Z,96322.03
2022-10-07T16:41:41.953Z,96317.13
2022-10-07T16:44:09.046Z,96319.75
2022-10-07T16:46:37.242Z,96317.06
2022-10-07T16:49:06.408Z,96328.47
2022-10-07T16:51:36.202Z,96326.13
2022-10-07T16:54:12.717Z,96316.81
2022-10-07T16:56:41.714Z,96317.59
2022-10-07T16:59:10.332Z,96312.81
2022-10-07T17:01:38.144Z,96314.06
2022-10-07T17:04:06.763Z,96313.84
2022-10-07T17:06:34.452Z,96317.78
2022-10-07T17:09:04.285Z,96318.03
2022-10-07T17:11:35.727Z,96314.34
2022-10-07T17:14:11.318Z,96321.09
2022-10-07T17:16:42.106Z,96312.88
2022-10-07T17:19:12.511Z,96323.88
2022-10-07T17:21:41.858Z,96321.38
2022-10-07T17:24:09.422Z,96323.00
2022-10-07T17:26:37.803Z,96319.25
2022-10-07T17:29:07.838Z,96309.59
2022-10-07T17:31:38.973Z,96319.25
2022-10-07T17:34:07.135Z,96320.78
2022-10-07T17:36:35.159Z,96310.41
2022-10-07T17:39:02.903Z,96319.38
2022-10-07T17:41:32.717Z,96320.53
2022-10-07T17:44:02.117Z,96322.00
2022-10-07T17:46:32.347Z,96319.47
2022-10-07T17:49:01.952Z,96320.34
2022-10-07T17:51:31.799Z,96322.81
2022-10-07T17:54:00.173Z,96320.47
2022-10-07T17:56:29.054Z,96320.44
2022-10-07T17:58:56.864Z,96324.59
2022-10-07T18:01:29.042Z,96316.25
2022-10-07T18:03:58.500Z,96330.00
2022-10-07T18:06:26.375Z,96326.88
2022-10-07T18:08:54.091Z,96316.69
2022-10-07T18:11:21.205Z,96324.25
2022-10-07T18:14:06.661Z,96312.16
2022-10-07T18:16:35.335Z,96318.22
2022-10-07T18:19:02.929Z,96320.50
2022-10-07T18:21:31.293Z,96326.16
2022-10-07T18:23:58.771Z,96320.84
2022-10-07T18:26:25.903Z,96314.22
2022-10-07T18:28:52.987Z,96314.47
2022-10-07T18:31:20.213Z,96313.94
2022-10-07T18:33:47.431Z,96313.84
2022-10-07T18:36:18.570Z,96305.66
2022-10-07T18:38:46.092Z,96307.56
2022-10-07T18:41:15.524Z,96304.28
2022-10-07T18:43:43.429Z,96310.22
2022-10-07T18:46:15.931Z,96305.44
2022-10-07T18:48:54.111Z,96307.13
2022-10-07T18:51:21.267Z,96310.78
2022-10-07T18:53:48.337Z,96306.34
2022-10-07T18:56:21.915Z,96302.84
2022-10-07T18:58:51.459Z,96298.94
2022-10-07T19:01:23.081Z,96298.47
2022-10-07T19:04:03.097Z,96296.16
2022-10-07T19:06:33.237Z,96303.28
2022-10-07T19:09:02.231Z,96301.75
2022-10-07T19:11:30.407Z,96300.25
2022-10-07T19:13:59.210Z,96290.06
2022-10-07T19:16:37.751Z,96295.44
2022-10-07T19:19:07.683Z,96291.88
2022-10-07T19:21:35.506Z,96289.84
2022-10-07T19:24:03.537Z,96301.66
2022-10-07T19:26:36.709Z,96294.91
2022-10-07T19:29:06.949Z,96284.47
2022-10-07T19:31:37.021Z,96278.09
2022-10-07T19:34:12.862Z,96286.75
2022-10-07T19:36:42.158Z,96272.53
2022-10-07T19:39:10.601Z,96276.44
2022-10-07T19:41:37.889Z,96275.69
2022-10-07T19:44:05.762Z,96277.28
2022-10-07T19:46:33.676Z,96271.84
2022-10-07T19:49:02.148Z,96278.59
2022-10-07T19:51:31.371Z,96274.28
2022-10-07T19:54:00.211Z,96264.81
2022-10-07T19:56:32.306Z,96276.66
2022-10-07T19:59:06.165Z,96269.91
2022-10-07T20:01:35.974Z,96270.34
2022-10-07T20:04:13.317Z,96269.91
2022-10-07T20:06:40.594Z,96272.66
2022-10-07T20:09:10.855Z,96272.72
2022-10-07T20:11:37.960Z,96275.06
2022-10-07T20:14:05.901Z,96277.47
2022-10-07T20:16:34.029Z,96279.06
2022-10-07T20:19:06.147Z,96268.81
2022-10-07T20:21:36.603Z,96268.06
2022-10-07T20:24:05.626Z,96257.00
2022-10-07T20:26:35.615Z,96256.59
2022-10-07T20:29:04.107Z,96252.66
2022-10-07T20:31:33.983Z,96252.28
2022-10-07T20:34:02.556Z,96257.00
2022-10-07T20:36:32.144Z,96254.63
2022-10-07T20:39:19.708Z,96251.09
2022-10-07T20:42:10.067Z,96249.91
2022-10-07T20:44:37.341Z,96258.94
2022-10-07T20:47:09.320Z,96256.97
2022-10-07T20:49:41.173Z,96258.19
2022-10-07T20:52:16.604Z,96259.38
2022-10-07T20:54:45.047Z,96271.16
2022-10-07T20:57:14.051Z,96264.88
2022-10-07T20:59:41.407Z,96263.31
2022-10-07T21:02:10.596Z,96248.38
2022-10-07T21:04:37.778Z,96260.94
2022-10-07T21:07:04.928Z,96254.22
2022-10-07T21:09:36.099Z,96260.16
2022-10-07T21:12:07.370Z,96259.78
2022-10-07T21:14:36.572Z,96259.78
2022-10-07T21:17:04.852Z,96257.78
2022-10-07T21:19:32.597Z,96257.78
2022-10-07T21:21:59.905Z,96248.69
2022-10-07T21:24:28.029Z,96242.03
2022-10-07T21:26:55.128Z,96248.31
2022-10-07T21:29:22.236Z,96246.69
2022-10-07T21:31:50.181Z,96241.97
2022-10-07T21:34:17.288Z,96242.75
2022-10-07T21:36:49.178Z,96241.94
2022-10-07T21:39:18.925Z,96245.13
2022-10-07T21:41:47.379Z,96245.19
2022-10-07T21:44:14.599Z,96246.34
2022-10-07T21:46:48.066Z,96250.69
2022-10-07T21:49:15.757Z,96256.94
2022-10-07T21:51:43.406Z,96247.13
2022-10-07T21:54:13.708Z,96249.03
2022-10-07T21:56:43.434Z,96252.13
2022-10-07T21:59:10.616Z,96241.94
2022-10-07T22:01:38.692Z,96241.50
2022-10-07T22:04:07.103Z,96244.25
2022-10-07T22:06:53.122Z,96250.59
2022-10-07T22:09:21.231Z,96253.81
2022-10-07T22:11:49.050Z,96253.81
2022-10-07T22:14:17.149Z,96251.47
2022-10-07T22:16:48.156Z,96250.72
2022-10-07T22:19:17.341Z,96249.94
2022-10-07T22:21:45.576Z,96252.31
2022-10-07T22:24:13.827Z,96252.28
2022-10-07T22:26:46.576Z,96248.75
2022-10-07T22:29:16.126Z,96257.81
2022-10-07T22:31:43.492Z,96249.53
2022-10-07T22:34:30.820Z,96246.78
2022-10-07T22:36:58.196Z,96260.94
2022-10-07T22:39:26.630Z,96249.91
2022-10-07T22:41:53.888Z,96248.00
2022-10-07T22:44:21.033Z,96253.84
2022-10-07T22:46:48.428Z,96254.25
2022-10-07T22:49:16.968Z,96260.16
2022-10-07T22:51:44.050Z,96241.28
2022-10-07T22:54:14.364Z,96240.09
2022-10-07T22:56:41.503Z,96246.78
2022-10-07T22:59:08.639Z,96242.44
2022-10-07T23:01:36.511Z,96240.88
2022-10-07T23:04:04.506Z,96233.38
2022-10-07T23:06:34.864Z,96233.38
2022-10-07T23:09:03.073Z,96237.31
2022-10-07T23:11:30.791Z,96235.72
2022-10-07T23:13:57.948Z,96234.16
2022-10-07T23:16:29.163Z,96230.22
2022-10-07T23:18:56.774Z,96231.00
2022-10-07T23:21:27.137Z,96232.97
2022-10-07T23:24:04.359Z,96235.72
2022-10-07T23:26:34.572Z,96229.44
2022-10-07T23:29:02.247Z,96240.44
2022-10-07T23:31:31.631Z,96237.25
2022-10-07T23:34:00.554Z,96237.25
2022-10-07T23:36:27.914Z,96233.25
2022-10-07T23:38:55.323Z,96236.47
2022-10-07T23:41:24.311Z,96226.22
2022-10-07T23:43:56.891Z,96229.38
2022-10-07T23:46:26.226Z,96217.56
2022-10-07T23:48:53.875Z,96221.88
2022-10-07T23:51:23.297Z,96227.00
2022-10-07T23:53:50.847Z,96232.44
2022-10-07T23:56:20.914Z,96224.22
2022-10-07T23:58:48.021Z,96212.84
